Time;durP1;ratioP1;P1;durP2;ratioP2;P2;SDS_P1;SDS_P2;PMS_P1;PMS_P2;Temp;Humidity;BMP_temperature;BMP_pressure;BME280_temperature;BME280_humidity;BME280_pressure;Samples;Min_cycle;Max_cycle;Signal;HPM_P1;HPM_P2
2021/03/07 00:00:25;;;;;;;68.00;27.75;;;;;;;-4.51;79.18;99165.69;1832566;77;21074;-71
2021/03/07 00:02:55;;;;;;;45.52;22.32;;;;;;;-4.54;79.70;99162.02;1832766;78;22586;-71
2021/03/07 00:05:21;;;;;;;46.85;24.98;;;;;;;-4.47;79.85;99173.64;1832308;77;21023;-71
2021/03/07 00:07:48;;;;;;;55.67;19.07;;;;;;;-4.33;80.07;99163.81;1832651;78;21534;-72
2021/03/07 00:10:16;;;;;;;96.15;40.92;;;;;;;-4.17;79.90;99160.92;1832589;76;21106;-72
2021/03/07 00:12:43;;;;;;;74.72;33.28;;;;;;;-4.11;79.77;99165.56;1804995;78;21101;-72
2021/03/07 00:15:11;;;;;;;82.60;39.08;;;;;;;-4.11;79.54;99164.23;1832580;77;21199;-72
2021/03/07 00:17:37;;;;;;;85.47;31.17;;;;;;;-4.23;79.90;99163.69;1805186;78;21065;-71
2021/03/07 00:20:06;;;;;;;99.58;42.17;;;;;;;-4.21;79.38;99163.53;1832580;77;21038;-72
2021/03/07 00:22:33;;;;;;;100.65;43.10;;;;;;;-4.41;78.80;99166.41;1832625;78;21502;-72
2021/03/07 00:24:59;;;;;;;84.45;39.70;;;;;;;-4.52;79.60;99162.70;1832612;77;21133;-72
2021/03/07 00:27:26;;;;;;;100.33;40.55;;;;;;;-4.50;78.91;99158.08;1832740;78;21495;-72
2021/03/07 00:29:52;;;;;;;85.17;38.42;;;;;;;-4.57;79.68;99155.23;1832538;77;21105;-72
2021/03/07 00:32:18;;;;;;;85.28;39.78;;;;;;;-4.55;79.04;99155.06;1832699;78;21114;-71
2021/03/07 00:34:44;;;;;;;92.53;40.35;;;;;;;-4.63;78.75;99147.08;1832203;76;21081;-72
2021/03/07 00:37:10;;;;;;;78.57;36.50;;;;;;;-4.70;78.69;99140.28;1826557;78;21063;-72
2021/03/07 00:39:36;;;;;;;81.15;39.50;;;;;;;-4.81;78.61;99137.86;1826626;77;21144;-72
2021/03/07 00:42:03;;;;;;;79.50;36.50;;;;;;;-4.89;78.73;99127.23;1826613;78;21130;-72
2021/03/07 00:44:29;;;;;;;74.50;32.53;;;;;;;-4.95;78.78;99130.51;1826717;77;21038;-72
2021/03/07 00:46:56;;;;;;;78.02;37.30;;;;;;;-4.98;78.86;99130.80;1826755;78;21110;-72
2021/03/07 00:49:24;;;;;;;86.10;40.30;;;;;;;-5.03;79.04;99118.05;1826755;77;21129;-72
2021/03/07 00:51:51;;;;;;;80.50;40.10;;;;;;;-4.98;80.99;99114.44;1826832;78;21416;-72
2021/03/07 00:54:17;;;;;;;72.92;35.28;;;;;;;-4.91;81.60;99117.30;1826523;77;21040;-72
2021/03/07 00:56:43;;;;;;;45.38;20.48;;;;;;;-4.83;79.60;99111.58;1826725;78;21105;-72
2021/03/07 00:59:09;;;;;;;57.67;24.65;;;;;;;-4.82;79.41;99101.34;1826723;77;21079;-72
2021/03/07 01:01:36;;;;;;;81.63;38.02;;;;;;;-4.79;79.26;99100.67;1826645;78;21081;-72
2021/03/07 01:04:02;;;;;;;77.53;33.53;;;;;;;-4.78;79.51;99101.87;1826740;77;21182;-72
2021/03/07 01:06:28;;;;;;;71.82;36.33;;;;;;;-4.71;79.26;99093.63;1826551;78;21062;-71
2021/03/07 01:08:54;;;;;;;76.45;36.13;;;;;;;-4.73;79.61;99094.28;1826661;77;21047;-71
2021/03/07 01:11:21;;;;;;;78.45;37.93;;;;;;;-4.70;79.42;99088.70;1826638;78;21043;-71
2021/03/07 01:13:47;;;;;;;82.95;38.55;;;;;;;-4.70;80.13;99076.80;1826708;77;21578;-71
2021/03/07 01:16:13;;;;;;;78.40;37.35;;;;;;;-4.64;79.42;99080.61;1826619;78;21202;-71
2021/03/07 01:18:39;;;;;;;84.77;39.35;;;;;;;-4.71;79.00;99072.47;1826631;77;21570;-70
2021/03/07 01:21:06;;;;;;;87.53;39.63;;;;;;;-4.77;79.71;99073.11;1826636;78;21129;-71
2021/03/07 01:23:33;;;;;;;93.90;40.75;;;;;;;-4.83;79.24;99070.59;1826624;77;21125;-71
2021/03/07 01:25:59;;;;;;;77.87;39.03;;;;;;;-4.78;79.03;99061.38;1826705;78;21542;-71
2021/03/07 01:28:25;;;;;;;75.87;34.98;;;;;;;-4.86;78.86;99060.83;1826611;77;22061;-71
2021/03/07 01:30:51;;;;;;;72.80;36.23;;;;;;;-4.89;79.28;99047.41;1826543;78;21047;-71
2021/03/07 01:33:17;;;;;;;83.87;39.30;;;;;;;-4.94;79.46;99048.39;1826577;78;21149;-71
2021/03/07 01:35:44;;;;;;;81.90;40.55;;;;;;;-4.95;79.87;99041.45;1825862;77;21113;-71
2021/03/07 01:38:10;;;;;;;89.10;38.85;;;;;;;-4.98;79.25;99032.48;1824705;78;21109;-71
2021/03/07 01:40:41;;;;;;;86.67;40.63;;;;;;;-4.95;79.58;99034.84;1824652;77;21088;-71
2021/03/07 01:43:07;;;;;;;87.15;41.23;;;;;;;-4.94;79.54;99027.73;1824588;78;21087;-72
2021/03/07 01:45:33;;;;;;;84.52;36.77;;;;;;;-4.91;79.05;99022.12;1824537;77;21066;-72
2021/03/07 01:48:06;;;;;;;65.22;31.25;;;;;;;-4.88;80.30;99016.02;1824688;78;21129;-72
2021/03/07 01:50:35;;;;;;;59.30;28.52;;;;;;;-4.77;79.03;99014.11;1823426;77;21046;-72
2021/03/07 01:53:01;;;;;;;37.25;18.92;;;;;;;-4.67;78.68;99011.67;1824731;78;21483;-72
2021/03/07 01:55:33;;;;;;;67.42;33.60;;;;;;;-4.64;78.63;99009.19;1823777;78;21074;-72
2021/03/07 01:58:10;;;;;;;58.70;27.30;;;;;;;-4.65;78.75;99000.92;1824727;78;21478;-71
2021/03/07 02:00:36;;;;;;;83.82;38.73;;;;;;;-4.62;78.60;99000.59;1824647;77;21078;-71
2021/03/07 02:03:03;;;;;;;68.65;32.60;;;;;;;-4.65;79.05;98997.78;1824636;78;21074;-71
2021/03/07 02:05:29;;;;;;;79.22;36.20;;;;;;;-4.60;78.82;98999.97;1824602;77;21134;-71
2021/03/07 02:07:55;;;;;;;74.55;34.88;;;;;;;-4.64;79.37;99002.08;1824564;78;21118;-71
2021/03/07 02:10:28;;;;;;;73.05;33.63;;;;;;;-4.58;79.04;98999.31;1824581;77;21039;-71
2021/03/07 02:12:59;;;;;;;72.22;35.28;;;;;;;-4.50;78.75;98998.52;1824595;78;21106;-72
2021/03/07 02:15:26;;;;;;;66.97;30.40;;;;;;;-4.48;78.49;98987.27;1824524;77;21094;-72
2021/03/07 02:17:52;;;;;;;70.92;33.42;;;;;;;-4.48;78.22;98979.33;1824581;78;21294;-72
2021/03/07 02:20:20;;;;;;;79.62;35.20;;;;;;;-4.48;78.13;98978.01;1824396;77;21042;-72
2021/03/07 02:23:02;;;;;;;63.10;25.80;;;;;;;-4.52;78.05;98975.36;1824618;78;21064;-72
2021/03/07 02:25:28;;;;;;;59.10;31.15;;;;;;;-4.50;77.91;98973.38;1824006;77;21067;-71
2021/03/07 02:27:57;;;;;;;73.07;35.73;;;;;;;-4.58;77.89;98970.20;1824617;78;21110;-71
2021/03/07 02:30:24;;;;;;;73.42;33.13;;;;;;;-4.64;78.45;98966.87;1824598;77;21180;-71
2021/03/07 02:33:02;;;;;;;55.58;28.98;;;;;;;-4.58;78.65;98959.63;1824588;78;21082;-71
2021/03/07 02:35:28;;;;;;;67.67;33.02;;;;;;;-4.51;78.05;98952.71;1816488;77;21411;-71
2021/03/07 02:37:58;;;;;;;65.72;32.17;;;;;;;-4.55;78.12;98944.25;1832782;78;21479;-71
2021/03/07 02:40:26;;;;;;;63.00;26.45;;;;;;;-4.56;77.70;98950.53;1832632;77;21475;-71
2021/03/07 02:42:53;;;;;;;72.78;33.60;;;;;;;-4.72;78.04;98937.75;1832829;78;26151;-71
2021/03/07 02:45:21;;;;;;;73.80;34.00;;;;;;;-4.72;78.04;98937.75;1804967;78;21419;-71
2021/03/07 02:47:51;;;;;;;47.43;28.25;;;;;;;-4.67;78.05;98946.05;1832871;78;21495;-71
2021/03/07 02:50:24;;;;;;;55.78;26.48;;;;;;;-4.65;77.96;98938.77;1832726;77;21030;-71
2021/03/07 02:52:59;;;;;;;65.92;28.83;;;;;;;-4.65;77.71;98933.48;1832800;78;21094;-72
2021/03/07 02:55:27;;;;;;;51.68;26.87;;;;;;;-4.68;77.87;98929.84;1832708;77;23376;-72
2021/03/07 02:57:54;;;;;;;54.23;27.93;;;;;;;-4.64;77.89;98933.31;1832742;78;21085;-72
2021/03/07 03:00:20;;;;;;;52.80;27.58;;;;;;;-4.62;77.66;98937.11;1832661;77;21058;-72
2021/03/07 03:02:46;;;;;;;73.17;33.02;;;;;;;-4.65;77.57;98936.13;1832615;78;21018;-72
2021/03/07 03:05:13;;;;;;;60.70;32.00;;;;;;;-4.62;77.86;98934.47;1832749;77;21509;-72
2021/03/07 03:07:39;;;;;;;65.97;31.30;;;;;;;-4.56;77.65;98938.62;1832689;78;21392;-72
2021/03/07 03:10:07;;;;;;;59.65;30.70;;;;;;;-4.57;77.42;98938.30;1805013;78;21525;-73
2021/03/07 03:12:34;;;;;;;62.33;32.20;;;;;;;-4.60;77.42;98936.48;1832631;78;21149;-72
2021/03/07 03:15:00;;;;;;;69.37;34.27;;;;;;;-4.68;77.45;98932.48;1832613;77;21010;-72
2021/03/07 03:17:26;;;;;;;57.90;31.02;;;;;;;-4.68;77.51;98925.87;1832651;78;21034;-72
2021/03/07 03:19:52;;;;;;;47.13;23.35;;;;;;;-4.71;77.49;98926.17;1832645;77;21467;-72
2021/03/07 03:22:19;;;;;;;60.50;29.60;;;;;;;-4.72;77.53;98936.42;1832553;78;21082;-72
2021/03/07 03:24:45;;;;;;;49.05;24.47;;;;;;;-4.74;77.48;98935.77;1832753;77;21113;-72
2021/03/07 03:27:14;;;;;;;26.97;12.33;;;;;;;-4.76;77.42;98932.45;1832610;78;21373;-72
2021/03/07 03:29:40;;;;;;;55.67;29.05;;;;;;;-4.86;77.70;98934.73;1832888;77;21014;-72
2021/03/07 03:32:06;;;;;;;69.55;33.98;;;;;;;-4.93;77.89;98928.92;1832736;78;21196;-72
2021/03/07 03:34:33;;;;;;;66.05;32.78;;;;;;;-4.91;77.89;98933.55;1832625;77;21094;-72
2021/03/07 03:37:00;;;;;;;83.05;35.80;;;;;;;-4.88;77.92;98928.75;1827980;78;21050;-72
2021/03/07 03:39:27;;;;;;;71.40;35.35;;;;;;;-4.89;77.92;98934.21;1824516;77;21129;-72
2021/03/07 03:41:59;;;;;;;78.25;38.53;;;;;;;-4.97;77.19;98932.36;1824606;78;21466;-72
2021/03/07 03:44:28;;;;;;;79.15;37.03;;;;;;;-5.17;76.11;98934.42;1824501;77;21262;-72
2021/03/07 03:46:57;;;;;;;91.57;44.35;;;;;;;-5.35;76.32;98931.52;1824430;78;21082;-71
2021/03/07 03:49:27;;;;;;;;;;;;;;;-5.43;76.57;98933.61;1800405;78;21105;-71
2021/03/07 03:52:03;;;;;;;27.58;12.98;;;;;;;-5.51;77.50;98932.23;1823695;78;20219;-71
2021/03/07 03:54:31;;;;;;;60.83;27.50;;;;;;;-5.45;77.58;98929.81;1824495;77;21078;-72
2021/03/07 03:56:58;;;;;;;32.85;15.83;;;;;;;-5.37;77.99;98921.60;1824612;78;21184;-72
2021/03/07 03:59:27;;;;;;;61.48;28.42;;;;;;;-5.23;77.83;98928.44;1824436;77;21094;-72
2021/03/07 04:01:54;;;;;;;44.25;22.80;;;;;;;-5.18;77.72;98926.16;1824585;78;21082;-72
2021/03/07 04:04:20;;;;;;;59.70;28.67;;;;;;;-5.15;77.95;98925.00;1824558;77;21038;-72
2021/03/07 04:06:46;;;;;;;56.28;28.17;;;;;;;-5.15;78.07;98925.00;1824503;78;21015;-72
2021/03/07 04:09:13;;;;;;;67.27;35.38;;;;;;;-5.15;78.06;98917.08;1824585;77;22221;-72
2021/03/07 04:11:39;;;;;;;59.80;30.25;;;;;;;-5.13;77.89;98920.38;1824415;78;21442;-72
2021/03/07 04:14:06;;;;;;;61.37;30.02;;;;;;;-5.11;77.81;98917.11;1824506;77;21141;-72
2021/03/07 04:16:32;;;;;;;58.65;28.98;;;;;;;-5.13;77.66;98916.42;1824636;78;21115;-72
2021/03/07 04:18:58;;;;;;;55.05;27.70;;;;;;;-5.18;77.83;98922.20;1824738;77;21007;-72
2021/03/07 04:21:24;;;;;;;75.52;35.63;;;;;;;-5.16;77.70;98929.47;1824717;78;21195;-72
2021/03/07 04:23:50;;;;;;;59.63;28.87;;;;;;;-5.16;77.61;98919.39;1824703;77;21039;-72
2021/03/07 04:26:17;;;;;;;50.95;25.68;;;;;;;-5.21;77.60;98911.13;1824722;78;21709;-72
2021/03/07 04:28:43;;;;;;;59.67;26.48;;;;;;;-5.35;77.37;98915.17;1824648;77;21160;-72
2021/03/07 04:31:09;;;;;;;51.98;28.07;;;;;;;-5.45;77.27;98913.13;1824625;78;21142;-72
2021/03/07 04:33:36;;;;;;;53.23;25.80;;;;;;;-5.57;77.54;98914.36;1824650;77;21195;-72
2021/03/07 04:36:04;;;;;;;63.02;29.30;;;;;;;-5.64;77.35;98914.64;1824566;77;21507;-72
2021/03/07 04:38:32;;;;;;;51.50;26.33;;;;;;;-5.80;77.82;98913.56;1826677;77;21071;-72
2021/03/07 04:40:58;;;;;;;46.83;26.30;;;;;;;-5.78;77.61;98910.77;1826669;78;21087;-72
2021/03/07 04:43:24;;;;;;;51.13;23.95;;;;;;;-5.79;77.43;98908.62;1821637;78;21106;-72
2021/03/07 04:45:50;;;;;;;54.20;27.87;;;;;;;-5.81;77.36;98911.05;1826670;78;21204;-72
2021/03/07 04:48:16;;;;;;;45.98;26.27;;;;;;;-5.88;77.51;98908.72;1826560;78;21054;-72
2021/03/07 04:50:42;;;;;;;63.28;31.00;;;;;;;-5.86;78.45;98914.66;1826724;77;21118;-72
2021/03/07 04:53:09;;;;;;;53.63;28.23;;;;;;;-5.91;78.09;98908.54;1826719;78;21075;-72
2021/03/07 04:55:35;;;;;;;53.73;25.00;;;;;;;-5.92;78.09;98912.16;1826642;77;21090;-72
2021/03/07 04:58:01;;;;;;;34.08;14.87;;;;;;;-5.93;77.88;98909.69;1826657;78;21447;-72
2021/03/07 05:00:28;;;;;;;51.37;23.30;;;;;;;-5.93;77.58;98907.05;1826563;77;21086;-72
2021/03/07 05:02:54;;;;;;;46.48;23.87;;;;;;;-6.05;78.12;98905.15;1826651;78;21090;-72
2021/03/07 05:05:20;;;;;;;52.48;25.97;;;;;;;-6.02;78.04;98903.52;1826695;77;21022;-72
2021/03/07 05:07:46;;;;;;;45.33;23.52;;;;;;;-6.04;79.08;98905.48;1826691;78;21058;-73
2021/03/07 05:10:12;;;;;;;57.35;25.65;;;;;;;-6.01;78.55;98901.21;1826635;77;21192;-72
2021/03/07 05:12:38;;;;;;;53.98;26.50;;;;;;;-6.01;78.20;98893.30;1826670;78;21090;-73
2021/03/07 05:15:07;;;;;;;63.00;30.23;;;;;;;-6.05;78.91;98895.42;1826689;77;21125;-72
2021/03/07 05:17:33;;;;;;;49.93;22.67;;;;;;;-6.00;79.05;98884.39;1826812;78;21122;-72
2021/03/07 05:20:01;;;;;;;69.55;33.05;;;;;;;-5.94;78.38;98882.47;1826731;77;21388;-72
2021/03/07 05:22:27;;;;;;;66.02;31.57;;;;;;;-5.97;79.05;98879.65;1826698;78;22139;-72
2021/03/07 05:24:53;;;;;;;63.92;28.77;;;;;;;-6.01;78.67;98870.36;1826514;77;21082;-72
2021/03/07 05:27:20;;;;;;;50.30;25.20;;;;;;;-6.01;77.84;98872.18;1826617;78;21573;-72
2021/03/07 05:29:46;;;;;;;73.50;34.63;;;;;;;-6.07;78.19;98868.83;1826630;77;21102;-72
2021/03/07 05:32:12;;;;;;;73.17;35.35;;;;;;;-6.03;78.38;98871.02;1826743;78;21114;-72
2021/03/07 05:34:38;;;;;;;68.07;34.30;;;;;;;-5.97;78.60;98868.27;1826580;77;21247;-72
2021/03/07 05:37:04;;;;;;;70.97;32.35;;;;;;;-5.88;78.99;98868.62;1825798;78;21142;-73
2021/03/07 05:39:30;;;;;;;73.22;34.33;;;;;;;-5.78;78.53;98861.42;1824674;77;21039;-72
2021/03/07 05:41:57;;;;;;;70.65;36.23;;;;;;;-5.76;78.62;98863.91;1824560;78;21050;-73
2021/03/07 05:44:23;;;;;;;72.15;31.87;;;;;;;-5.71;78.26;98857.68;1824698;77;21480;-72
2021/03/07 05:46:49;;;;;;;56.35;29.95;;;;;;;-5.61;77.88;98861.03;1824556;78;22087;-72
2021/03/07 05:49:15;;;;;;;14.90;10.75;;;;;;;-5.47;77.61;98849.04;1824534;77;21109;-72
2021/03/07 05:51:43;;;;;;;67.62;31.35;;;;;;;-5.37;77.67;98849.78;1824582;78;21150;-72
2021/03/07 05:54:11;;;;;;;80.32;38.10;;;;;;;-5.41;77.70;98847.92;1824009;78;21087;-72
2021/03/07 05:56:39;;;;;;;38.50;19.85;;;;;;;-5.36;77.78;98847.47;1824676;78;21455;-73
2021/03/07 05:59:05;;;;;;;56.23;21.30;;;;;;;-5.28;77.65;98840.89;1824836;77;21229;-72
2021/03/07 06:01:31;;;;;;;64.05;30.95;;;;;;;-5.29;77.69;98841.89;1824556;78;21664;-72
2021/03/07 06:04:04;;;;;;;61.90;31.52;;;;;;;-5.29;77.81;98840.56;1824638;77;21429;-72
2021/03/07 06:06:33;;;;;;;36.30;17.45;;;;;;;-5.22;77.77;98833.63;1824631;78;21070;-71
2021/03/07 06:09:26;;;;;;;75.45;38.00;;;;;;;-5.12;77.52;98830.88;1824588;77;20991;-72
2021/03/07 06:11:52;;;;;;;63.10;32.73;;;;;;;-5.08;77.70;98826.09;1824557;78;22492;-71
2021/03/07 06:14:24;;;;;;;68.12;32.28;;;;;;;-4.97;77.58;98824.46;1824526;77;21038;-71
2021/03/07 06:17:09;;;;;;;62.78;33.95;;;;;;;-4.90;77.19;98826.30;1824577;78;21074;-71
2021/03/07 06:20:02;;;;;;;53.90;29.48;;;;;;;-4.80;77.24;98827.97;1824649;77;21514;-72
2021/03/07 06:22:29;;;;;;;45.88;23.98;;;;;;;-4.68;76.92;98824.05;1824557;78;21027;-72
2021/03/07 06:24:56;;;;;;;56.58;29.30;;;;;;;-4.55;76.83;98825.20;1824582;77;21184;-72
2021/03/07 06:27:22;;;;;;;21.48;10.65;;;;;;;-4.44;76.75;98823.22;1824482;78;21121;-72
2021/03/07 06:30:08;;;;;;;62.65;29.23;;;;;;;-4.32;76.49;98824.06;1797157;78;21098;-72
2021/03/07 06:32:38;;;;;;;58.38;28.07;;;;;;;-4.24;76.57;98826.39;1824526;78;21497;-71
2021/03/07 06:35:10;;;;;;;63.85;30.85;;;;;;;-4.05;76.42;98828.69;1824621;77;21491;-71
2021/03/07 06:38:02;;;;;;;55.38;27.77;;;;;;;-3.88;76.40;98824.20;1825317;78;21263;-72
2021/03/07 06:40:33;;;;;;;49.93;25.25;;;;;;;-3.74;75.86;98819.05;1826462;77;21480;-71
2021/03/07 06:43:01;;;;;;;53.60;28.57;;;;;;;-3.51;75.55;98814.33;1821456;78;21035;-71
2021/03/07 06:45:39;;;;;;;61.92;31.27;;;;;;;-3.37;75.54;98809.66;1826655;77;21075;-71
2021/03/07 06:48:06;;;;;;;49.53;25.80;;;;;;;-3.13;74.90;98814.03;1826846;78;21162;-72
2021/03/07 06:50:33;;;;;;;81.20;35.45;;;;;;;-3.00;74.56;98812.95;1826652;77;21240;-72
2021/03/07 06:53:00;;;;;;;78.92;37.15;;;;;;;-2.94;74.71;98810.95;1826479;78;21038;-72
2021/03/07 06:55:29;;;;;;;63.83;32.45;;;;;;;-2.86;74.15;98805.59;1826488;77;21154;-72
2021/03/07 06:57:55;;;;;;;;;;;;;;;-2.77;73.18;98803.72;1829257;78;21086;-72
2021/03/07 07:00:38;;;;;;;71.22;33.78;;;;;;;-2.65;74.05;98801.47;1826571;77;20314;-72
2021/03/07 07:03:11;;;;;;;67.32;30.40;;;;;;;-2.53;73.78;98800.58;1826655;78;21196;-71
2021/03/07 07:05:49;;;;;;;52.30;24.63;;;;;;;-2.29;74.29;98805.20;1826514;77;21034;-72
2021/03/07 07:08:18;;;;;;;62.40;31.90;;;;;;;-2.05;74.38;98797.53;1826450;78;21502;-72
2021/03/07 07:10:56;;;;;;;58.00;29.60;;;;;;;-1.82;74.15;98798.79;1826672;77;21102;-72
2021/03/07 07:13:24;;;;;;;59.70;29.85;;;;;;;-1.63;73.26;98795.27;1826663;78;21133;-72
2021/03/07 07:16:07;;;;;;;59.75;29.57;;;;;;;-1.49;73.60;98791.80;1826570;77;21129;-72
2021/03/07 07:18:39;;;;;;;52.67;26.82;;;;;;;-1.31;73.83;98786.10;1826463;77;21542;-72
2021/03/07 07:21:08;;;;;;;47.10;26.50;;;;;;;-0.90;73.30;98789.88;1826677;78;21503;-71
2021/03/07 07:23:35;;;;;;;53.48;29.15;;;;;;;-0.02;72.26;98795.84;1826583;77;21523;-71
2021/03/07 07:26:01;;;;;;;58.87;36.53;;;;;;;0.85;72.01;98784.69;1826623;78;21098;-71
2021/03/07 07:28:28;;;;;;;57.62;32.80;;;;;;;1.56;70.35;98782.45;1826563;77;21092;-71
2021/03/07 07:31:08;;;;;;;71.15;46.85;;;;;;;2.52;67.71;98782.83;1826518;78;21118;-71
2021/03/07 07:34:12;;;;;;;61.40;37.70;;;;;;;2.80;66.13;98778.52;1826525;77;21115;-73
2021/03/07 07:37:01;;;;;;;50.70;33.58;;;;;;;3.78;66.60;98772.05;1755154;81;21107;-72
2021/03/07 07:39:33;;;;;;;48.87;28.07;;;;;;;4.51;63.79;98769.52;1755322;81;21495;-71
2021/03/07 07:42:21;;;;;;;40.70;27.65;;;;;;;5.36;64.23;98760.95;1793236;78;22057;-71
2021/03/07 07:44:48;;;;;;;32.67;22.77;;;;;;;6.05;62.55;98753.32;1826610;77;21082;-72
2021/03/07 07:47:14;;;;;;;37.95;24.98;;;;;;;6.61;59.70;98754.62;1826613;78;21554;-70
2021/03/07 07:49:48;;;;;;;30.02;20.95;;;;;;;7.27;58.00;98747.08;1826791;77;21030;-70
2021/03/07 07:52:30;;;;;;;35.88;25.55;;;;;;;7.95;57.96;98746.14;1826719;78;21086;-72
2021/03/07 07:54:58;;;;;;;19.23;12.90;;;;;;;8.61;57.78;98740.39;1826696;77;21185;-71
2021/03/07 07:57:35;;;;;;;12.07;8.20;;;;;;;9.13;54.35;98731.05;1826896;78;21503;-72
2021/03/07 08:00:05;;;;;;;10.10;7.37;;;;;;;9.36;49.07;98724.02;1823475;77;21041;-72
2021/03/07 08:02:47;;;;;;;10.78;7.62;;;;;;;9.56;44.91;98720.69;1847664;76;22626;-71
2021/03/07 08:05:26;;;;;;;7.78;5.95;;;;;;;9.70;46.20;98713.79;1794009;79;21078;-71
2021/03/07 08:08:06;;;;;;;9.38;6.35;;;;;;;9.66;44.64;98714.58;1785917;79;21519;-71
2021/03/07 08:10:41;;;;;;;9.90;6.12;;;;;;;9.97;43.46;98713.75;1785176;79;21106;-71
2021/03/07 08:13:14;;;;;;;7.78;6.10;;;;;;;10.54;43.45;98711.73;1785971;80;20980;-72
2021/03/07 08:15:46;;;;;;;8.63;6.28;;;;;;;10.92;41.16;98707.84;1785948;79;21047;-71
2021/03/07 08:18:17;;;;;;;13.38;7.30;;;;;;;11.59;41.06;98707.48;1786004;80;21555;-71
2021/03/07 08:20:48;;;;;;;9.48;7.28;;;;;;;11.75;41.25;98705.06;1785798;79;21129;-71
2021/03/07 08:23:20;;;;;;;7.67;6.35;;;;;;;12.18;39.34;98702.91;1785898;79;21099;-72
2021/03/07 08:25:53;;;;;;;9.25;6.75;;;;;;;12.60;38.64;98705.28;1785157;79;20885;-71
2021/03/07 08:31:19;;;;;;;13.00;8.08;;;;;;;13.18;34.66;98687.11;1847509;76;22681;-72
2021/03/07 08:33:46;;;;;;;13.08;5.72;;;;;;;13.53;35.40;98689.65;1813640;78;21659;-71
2021/03/07 08:36:23;;;;;;;7.30;5.67;;;;;;;13.66;33.20;98685.46;1785912;80;21187;-72
2021/03/07 08:38:55;;;;;;;7.05;5.42;;;;;;;13.65;33.04;98679.75;1785882;79;21579;-72
2021/03/07 08:41:35;;;;;;;9.83;7.67;;;;;;;13.65;32.26;98672.13;1786031;79;21479;-72
2021/03/07 08:44:13;;;;;;;11.45;7.03;;;;;;;13.88;31.87;98665.97;1785935;79;21159;-71
2021/03/07 08:46:45;;;;;;;7.17;5.70;;;;;;;14.65;30.68;98664.69;1784808;80;21116;-71
2021/03/07 08:49:13;;;;;;;7.17;5.22;;;;;;;14.53;31.24;98658.84;1785851;79;21252;-71
2021/03/07 08:51:44;;;;;;;10.63;6.73;;;;;;;14.25;28.18;98651.71;1786079;80;20991;-72
2021/03/07 08:54:20;;;;;;;9.60;5.90;;;;;;;13.60;28.78;98658.58;1785793;79;21440;-73
2021/03/07 08:56:49;;;;;;;8.43;6.37;;;;;;;13.68;29.45;98641.63;1785910;80;21123;-71
2021/03/07 08:59:15;;;;;;;8.37;5.63;;;;;;;13.46;29.60;98653.75;1786095;79;21031;-71
2021/03/07 09:01:41;;;;;;;8.90;6.60;;;;;;;13.63;29.95;98644.37;1785962;80;21248;-71
2021/03/07 09:04:10;;;;;;;8.00;6.03;;;;;;;14.13;28.64;98642.31;1785846;79;21312;-71
2021/03/07 09:06:38;;;;;;;11.22;6.28;;;;;;;13.34;29.70;98640.25;1785707;79;21078;-72
2021/03/07 09:09:11;;;;;;;10.25;7.58;;;;;;;11.11;32.33;98639.55;1785895;79;21461;-72
2021/03/07 09:11:53;;;;;;;13.53;8.08;;;;;;;9.70;34.49;98638.02;1785910;80;20949;-71
2021/03/07 09:14:39;;;;;;;9.98;6.55;;;;;;;8.46;34.88;98635.69;1785805;79;21189;-71
2021/03/07 09:17:11;;;;;;;11.40;7.08;;;;;;;7.52;36.64;98635.64;1785048;80;21119;-71
2021/03/07 09:19:39;;;;;;;8.55;5.97;;;;;;;6.78;37.73;98634.31;1784913;79;21044;-70
2021/03/07 09:22:25;;;;;;;17.20;9.40;;;;;;;6.29;39.23;98625.48;1786183;79;21110;-70
2021/03/07 09:24:59;;;;;;;12.82;8.23;;;;;;;5.97;39.71;98626.41;1785834;79;21070;-71
2021/03/07 09:27:34;;;;;;;10.82;7.40;;;;;;;5.64;40.58;98625.92;1785844;80;21962;-71
2021/03/07 09:30:14;;;;;;;10.55;6.42;;;;;;;5.47;40.66;98608.84;1791657;79;21066;-71
2021/03/07 09:32:49;;;;;;;11.00;5.90;;;;;;;5.31;41.03;98621.62;1800483;79;21090;-70
2021/03/07 09:35:34;;;;;;;9.45;6.10;;;;;;;5.16;41.80;98614.52;1799735;78;21038;-70
2021/03/07 09:38:08;;;;;;;8.88;5.50;;;;;;;4.91;42.10;98605.27;1800449;79;21097;-71
2021/03/07 09:40:39;;;;;;;8.78;5.60;;;;;;;4.71;42.11;98606.91;1800309;78;21194;-71
2021/03/07 09:43:08;;;;;;;9.43;6.83;;;;;;;4.61;42.36;98592.66;1799786;79;21492;-71
2021/03/07 09:45:37;;;;;;;9.08;5.62;;;;;;;4.55;42.68;98597.61;1799750;78;21050;-71
2021/03/07 09:48:04;;;;;;;8.33;5.67;;;;;;;4.48;43.30;98593.66;1773800;79;21117;-71
2021/03/07 09:50:30;;;;;;;10.05;4.78;;;;;;;4.37;42.91;98590.94;1799779;78;21102;-71
2021/03/07 09:52:56;;;;;;;9.03;6.05;;;;;;;4.31;42.60;98589.96;1799879;79;21242;-71
2021/03/07 09:55:29;;;;;;;5.58;3.62;;;;;;;4.21;43.08;98589.67;1799658;78;21118;-71
2021/03/07 09:58:07;;;;;;;9.28;6.00;;;;;;;4.21;43.12;98577.61;1847669;76;22319;-70
2021/03/07 10:00:34;;;;;;;11.55;6.80;;;;;;;4.13;44.09;98586.77;1789831;78;20916;-70
2021/03/07 10:03:00;;;;;;;7.67;5.62;;;;;;;4.19;43.69;98571.13;1785915;80;21456;-70
2021/03/07 10:05:26;;;;;;;8.75;5.80;;;;;;;4.16;43.61;98563.52;1785907;79;21016;-70
2021/03/07 10:07:52;;;;;;;12.10;6.17;;;;;;;4.17;44.04;98561.13;1785877;79;21046;-70
2021/03/07 10:10:24;;;;;;;9.38;6.40;;;;;;;4.21;44.38;98560.17;1785978;79;21491;-70
2021/03/07 10:12:57;;;;;;;11.95;6.65;;;;;;;4.29;44.20;98557.18;1785993;79;21098;-71
2021/03/07 10:15:39;;;;;;;9.80;6.28;;;;;;;4.28;44.30;98554.73;1785923;79;21423;-71
2021/03/07 10:18:16;;;;;;;21.10;8.40;;;;;;;4.34;43.88;98555.14;1785858;80;21104;-70
2021/03/07 10:20:46;;;;;;;7.67;4.53;;;;;;;4.35;44.39;98558.94;1785859;79;21067;-71
2021/03/07 10:23:13;;;;;;;15.05;9.95;;;;;;;4.47;43.98;98549.09;1731489;80;21071;-71
2021/03/07 10:25:41;;;;;;;22.05;8.55;;;;;;;4.53;44.52;98543.34;1785891;79;21070;-72
2021/03/07 10:28:10;;;;;;;11.30;6.95;;;;;;;4.57;42.69;98533.77;1786078;80;21305;-71
2021/03/07 10:30:40;;;;;;;11.27;4.97;;;;;;;4.56;43.49;98532.14;1786140;79;21150;-71
2021/03/07 10:33:14;;;;;;;18.50;10.93;;;;;;;4.60;43.19;98535.17;1785954;79;21122;-71
2021/03/07 10:36:06;;;;;;;19.37;10.25;;;;;;;4.66;44.07;98528.91;1785936;79;21142;-70
2021/03/07 10:38:36;;;;;;;11.43;6.87;;;;;;;4.75;42.31;98523.50;1785941;79;21448;-71
2021/03/07 10:41:30;;;;;;;9.98;6.65;;;;;;;4.71;43.66;98519.65;1785920;80;22124;-72
2021/03/07 10:43:56;;;;;;;11.38;7.78;;;;;;;4.74;42.74;98519.17;1732109;81;21057;-70
2021/03/07 10:46:25;;;;;;;10.82;5.47;;;;;;;4.67;42.97;98503.16;1786103;80;21035;-70
2021/03/07 10:48:59;;;;;;;11.53;7.15;;;;;;;4.73;43.05;98504.94;1785942;79;21024;-70
2021/03/07 10:51:27;;;;;;;13.30;6.87;;;;;;;4.82;42.01;98502.73;1785921;80;21888;-71
2021/03/07 10:53:53;;;;;;;9.15;5.97;;;;;;;4.73;42.59;98498.75;1785918;79;21186;-71
2021/03/07 10:56:19;;;;;;;13.08;8.63;;;;;;;4.73;42.91;98498.75;1785646;78;21228;-71
2021/03/07 10:58:46;;;;;;;15.20;7.00;;;;;;;4.71;42.02;98483.41;1785915;79;21730;-71
2021/03/07 11:01:18;;;;;;;11.55;7.25;;;;;;;4.72;41.91;98488.53;1785798;80;21158;-71
2021/03/07 11:03:44;;;;;;;37.98;15.60;;;;;;;4.76;42.67;98491.04;1785871;79;21067;-70
2021/03/07 11:06:10;;;;;;;25.17;13.00;;;;;;;4.85;43.02;98482.66;1785907;80;21268;-70
2021/03/07 11:08:40;;;;;;;19.55;10.23;;;;;;;4.88;41.81;98479.52;1785491;79;21150;-71
2021/03/07 11:11:06;;;;;;;20.80;11.08;;;;;;;4.79;41.37;98463.75;1785249;80;21098;-72
2021/03/07 11:13:33;;;;;;;16.02;7.90;;;;;;;4.80;41.85;98464.56;1785318;79;21146;-71
2021/03/07 11:15:59;;;;;;;13.90;8.15;;;;;;;4.83;42.24;98457.91;1785338;80;21494;-71
2021/03/07 11:18:25;;;;;;;11.57;6.53;;;;;;;4.90;42.79;98455.41;1785245;80;21195;-72
2021/03/07 11:20:51;;;;;;;11.97;7.92;;;;;;;4.95;41.75;98448.80;1785287;80;21568;-71
2021/03/07 11:23:18;;;;;;;12.07;6.65;;;;;;;4.94;41.63;98436.42;1785257;80;21118;-71
2021/03/07 11:25:44;;;;;;;11.57;7.50;;;;;;;4.99;41.85;98441.11;1785378;79;21424;-71
2021/03/07 11:28:10;;;;;;;10.85;6.50;;;;;;;5.04;41.46;98434.48;1785364;80;21103;-71
2021/03/07 11:30:36;;;;;;;9.63;6.95;;;;;;;5.03;41.30;98426.14;1785361;79;22004;-71
2021/03/07 11:33:03;;;;;;;11.83;6.58;;;;;;;5.04;42.02;98419.72;1785245;80;21475;-72
2021/03/07 11:35:29;;;;;;;23.60;13.72;;;;;;;5.09;40.00;98408.57;1785245;79;21099;-72
2021/03/07 11:40:34;;;;;;;27.55;18.37;;;;;;;5.30;42.46;98413.88;1859477;76;22504;-70